Time;durP1;ratioP1;P1;durP2;ratioP2;P2;SDS_P1;SDS_P2;PMS_P1;PMS_P2;Temp;Humidity;BMP_temperature;BMP_pressure;BME280_temperature;BME280_humidity;BME280_pressure;Samples;Min_cycle;Max_cycle;Signal;HPM_P1;HPM_P2
2022/01/27 00:21:10;;;;;;;15.65;12.27;;;;;;;;;;4500066;28;20261;-65
2022/01/27 00:23:37;;;;;;;16.60;12.63;;;;;;;;;;4226313;33;20096;-66
2022/01/27 00:26:03;;;;;;;15.10;13.48;;;;;;;;;;4227575;33;20149;-65
2022/01/27 00:28:30;;;;;;;15.88;13.32;;;;;;;;;;4219601;34;20119;-66
2022/01/27 00:30:56;;;;;;;15.35;12.90;;;;;;;;;;4228542;33;20137;-67
2022/01/27 00:33:22;;;;;;;14.70;12.88;;;;;;;;;;4233467;33;20600;-66
2022/01/27 00:35:48;;;;;;;15.15;12.10;;;;;;;;;;4233568;33;20526;-65
2022/01/27 00:38:14;;;;;;;14.45;12.70;;;;;;;;;;4231176;33;20121;-65
2022/01/27 00:40:41;;;;;;;15.07;12.37;;;;;;;;;;4219222;34;20121;-64
2022/01/27 00:43:07;;;;;;;15.85;12.57;;;;;;;;;;4219271;34;20133;-65
2022/01/27 00:45:33;;;;;;;13.35;11.82;;;;;;;;;;4219292;34;20113;-65
2022/01/27 00:48:03;;;;;;;18.00;12.00;;;;;;;;;;4219100;34;20137;-65
2022/01/27 00:50:31;;;;;;;18.15;13.23;;;;;;;;;;4219323;34;20615;-64
2022/01/27 00:53:00;;;;;;;16.65;12.65;;;;;;;;;;4219155;34;20121;-65
2022/01/27 00:55:28;;;;;;;14.95;12.25;;;;;;;;;;4222051;33;20433;-64
2022/01/27 00:58:11;;;;;;;15.00;12.95;;;;;;;;;;4233113;33;20107;-65
2022/01/27 01:00:43;;;;;;;14.20;11.68;;;;;;;;;;4233173;33;20208;-63
2022/01/27 01:03:21;;;;;;;16.05;12.18;;;;;;;;;;4233173;33;20156;-66
2022/01/27 01:06:19;;;;;;;15.60;13.18;;;;;;;;;;4232864;33;20132;-67
2022/01/27 01:16:04;;;;;;;16.48;12.55;;;;;;;;;;4231463;33;20127;-67
2022/01/27 01:18:51;;;;;;;15.73;12.55;;;;;;;;;;4233117;33;20090;-68
2022/01/27 01:21:59;;;;;;;16.02;12.37;;;;;;;;;;4232719;33;20196;-68
2022/01/27 01:35:06;;;;;;;18.73;12.40;;;;;;;;;;4218817;34;20109;-67
2022/01/27 01:37:37;;;;;;;14.80;12.15;;;;;;;;;;4206344;34;20124;-68
2022/01/27 01:40:09;;;;;;;17.60;12.65;;;;;;;;;;4206439;34;20128;-68
2022/01/27 01:42:35;;;;;;;16.15;12.10;;;;;;;;;;4205791;34;20473;-68
2022/01/27 01:45:05;;;;;;;15.68;12.57;;;;;;;;;;4217369;34;20530;-68
2022/01/27 01:47:31;;;;;;;14.40;12.15;;;;;;;;;;4218675;34;20170;-68
2022/01/27 01:49:57;;;;;;;16.12;12.52;;;;;;;;;;4218761;34;20140;-68
2022/01/27 01:52:24;;;;;;;16.05;11.93;;;;;;;;;;4218674;34;20102;-67
2022/01/27 01:54:51;;;;;;;14.13;12.30;;;;;;;;;;4218653;34;20274;-67
2022/01/27 01:57:18;;;;;;;13.75;12.18;;;;;;;;;;4229662;33;21074;-67
2022/01/27 01:59:44;;;;;;;14.43;11.98;;;;;;;;;;4232541;33;20117;-67
2022/01/27 02:02:12;;;;;;;14.35;11.95;;;;;;;;;;4232730;33;20518;-68
2022/01/27 02:04:40;;;;;;;14.55;12.23;;;;;;;;;;4232616;33;20184;-66
2022/01/27 02:07:15;;;;;;;14.73;12.07;;;;;;;;;;4232545;33;20116;-66
2022/01/27 02:18:01;;;;;;;15.70;12.77;;;;;;;;;;4231711;33;20101;-67
2022/01/27 02:20:29;;;;;;;18.62;12.55;;;;;;;;;;4231236;33;20531;-67
2022/01/27 02:22:55;;;;;;;13.75;12.27;;;;;;;;;;4230197;33;20192;-67
2022/01/27 02:25:22;;;;;;;16.15;12.27;;;;;;;;;;4218446;34;20196;-67
2022/01/27 02:27:53;;;;;;;16.37;12.32;;;;;;;;;;4218337;34;20093;-67
2022/01/27 02:30:19;;;;;;;15.05;13.13;;;;;;;;;;4218293;34;20616;-67
2022/01/27 02:32:45;;;;;;;15.38;12.95;;;;;;;;;;4218236;34;20082;-67
2022/01/27 02:35:11;;;;;;;15.65;12.52;;;;;;;;;;4218316;34;20097;-67
2022/01/27 02:37:37;;;;;;;14.18;12.00;;;;;;;;;;4218086;34;20110;-67
2022/01/27 02:40:04;;;;;;;16.48;12.77;;;;;;;;;;4218266;34;20117;-68
2022/01/27 02:42:35;;;;;;;14.98;11.95;;;;;;;;;;4218214;34;20117;-67
2022/01/27 02:45:18;;;;;;;16.95;12.50;;;;;;;;;;4216865;34;20488;-66
2022/01/27 02:47:45;;;;;;;14.95;12.43;;;;;;;;;;4218082;34;20524;-66
2022/01/27 02:50:11;;;;;;;13.60;11.68;;;;;;;;;;4218140;34;20540;-72
2022/01/27 02:52:38;;;;;;;14.32;12.63;;;;;;;;;;4216758;34;20584;-74
2022/01/27 02:55:04;;;;;;;14.15;12.37;;;;;;;;;;4218029;34;20469;-67
2022/01/27 02:57:30;;;;;;;14.02;12.23;;;;;;;;;;4205396;34;20180;-73
2022/01/27 02:59:57;;;;;;;15.75;12.27;;;;;;;;;;4218088;34;20089;-72
2022/01/27 03:02:23;;;;;;;18.37;12.65;;;;;;;;;;4203647;34;20430;-73
2022/01/27 03:04:50;;;;;;;17.83;12.88;;;;;;;;;;4217012;34;20112;-72
2022/01/27 03:07:16;;;;;;;18.65;12.60;;;;;;;;;;4204352;34;20105;-72
2022/01/27 03:09:42;;;;;;;16.55;12.45;;;;;;;;;;4216791;34;20922;-73
2022/01/27 03:12:11;;;;;;;15.25;12.60;;;;;;;;;;4202729;34;20144;-72
2022/01/27 03:14:39;;;;;;;14.87;12.10;;;;;;;;;;4215885;34;20109;-71
2022/01/27 03:17:06;;;;;;;15.02;11.70;;;;;;;;;;4215871;34;20117;-71
2022/01/27 03:19:32;;;;;;;16.55;12.75;;;;;;;;;;4202969;34;20109;-71
2022/01/27 03:22:00;;;;;;;15.98;13.55;;;;;;;;;;4215378;34;20525;-69
2022/01/27 03:24:27;;;;;;;18.25;14.93;;;;;;;;;;4218128;34;20502;-71
2022/01/27 03:26:55;;;;;;;18.12;14.70;;;;;;;;;;4217978;34;20541;-73
2022/01/27 03:29:21;;;;;;;20.05;14.57;;;;;;;;;;4218392;34;20104;-74
2022/01/27 03:31:47;;;;;;;16.42;13.80;;;;;;;;;;4218545;34;20119;-71
2022/01/27 03:34:14;;;;;;;15.07;12.68;;;;;;;;;;4219881;34;20100;-69
2022/01/27 03:36:41;;;;;;;14.93;12.00;;;;;;;;;;4219922;34;20112;-69
2022/01/27 03:39:08;;;;;;;15.50;12.80;;;;;;;;;;4219894;34;20081;-66
2022/01/27 03:41:36;;;;;;;14.52;12.25;;;;;;;;;;4219682;34;20118;-67
2022/01/27 03:44:03;;;;;;;14.87;12.18;;;;;;;;;;4206982;34;20121;-64
2022/01/27 03:46:29;;;;;;;13.65;11.63;;;;;;;;;;4206823;34;20130;-65
2022/01/27 03:48:55;;;;;;;17.77;11.95;;;;;;;;;;4219790;34;20180;-67
2022/01/27 03:51:22;;;;;;;18.75;12.50;;;;;;;;;;4219785;34;20113;-65
2022/01/27 03:53:48;;;;;;;15.20;12.70;;;;;;;;;;4218377;34;20104;-67
2022/01/27 03:56:14;;;;;;;18.35;14.18;;;;;;;;;;4195546;34;20109;-67
2022/01/27 03:58:40;;;;;;;16.75;13.30;;;;;;;;;;4219795;34;20128;-68
2022/01/27 04:01:06;;;;;;;17.02;13.25;;;;;;;;;;4219695;34;20439;-69
2022/01/27 04:03:36;;;;;;;15.07;12.27;;;;;;;;;;4206964;34;20108;-67
2022/01/27 04:06:07;;;;;;;15.63;12.55;;;;;;;;;;4206807;34;20115;-68
2022/01/27 04:08:37;;;;;;;15.95;12.95;;;;;;;;;;4219656;34;20094;-66
2022/01/27 04:11:05;;;;;;;15.57;13.00;;;;;;;;;;4219654;34;20106;-69
2022/01/27 04:13:31;;;;;;;15.20;12.90;;;;;;;;;;4219487;34;20120;-68
2022/01/27 04:15:57;;;;;;;14.63;12.18;;;;;;;;;;4217911;34;20208;-70
2022/01/27 04:18:23;;;;;;;16.10;11.90;;;;;;;;;;4219700;34;20449;-75
2022/01/27 04:20:49;;;;;;;16.30;13.10;;;;;;;;;;4219400;34;20137;-69
2022/01/27 04:23:18;;;;;;;16.67;12.27;;;;;;;;;;4204919;34;20628;-67
2022/01/27 04:25:45;;;;;;;17.75;12.73;;;;;;;;;;4193182;34;20124;-69
2022/01/27 04:28:15;;;;;;;18.42;12.95;;;;;;;;;;4217334;34;20114;-69
2022/01/27 04:30:41;;;;;;;15.63;12.10;;;;;;;;;;4204931;34;20116;-69
2022/01/27 04:33:08;;;;;;;15.73;12.85;;;;;;;;;;4206749;34;20089;-68
2022/01/27 04:35:39;;;;;;;16.27;13.07;;;;;;;;;;4206547;34;20121;-71
2022/01/27 04:40:38;;;;;;;15.50;12.60;;;;;;;;;;4218699;34;20109;-70
2022/01/27 04:43:13;;;;;;;16.67;13.48;;;;;;;;;;4207148;34;20113;-68
2022/01/27 04:48:18;;;;;;;17.83;13.93;;;;;;;;;;4219312;34;20220;-70
2022/01/27 04:50:44;;;;;;;18.77;14.68;;;;;;;;;;4219490;34;20093;-70
2022/01/27 04:53:36;;;;;;;19.23;15.07;;;;;;;;;;4219221;34;20546;-66
2022/01/27 04:55:59;;;;;;;18.20;14.30;;;;;;;;;;4208039;34;20758;-69
2022/01/27 04:58:31;;;;;;;19.02;14.25;;;;;;;;;;4219572;34;20102;-68
2022/01/27 05:01:00;;;;;;;18.00;13.93;;;;;;;;;;4219312;34;20144;-73
2022/01/27 05:04:12;;;;;;;19.25;13.57;;;;;;;;;;4206705;34;20130;-66
2022/01/27 05:06:16;;;;;;;16.02;13.30;;;;;;;;;;4214900;34;20101;-67
2022/01/27 05:08:42;;;;;;;16.58;13.18;;;;;;;;;;4219046;34;20120;-68
2022/01/27 05:16:33;;;;;;;19.23;14.43;;;;;;;;;;4204807;34;20105;-67
2022/01/27 05:18:59;;;;;;;14.90;12.60;;;;;;;;;;4204031;34;20124;-67
2022/01/27 05:21:25;;;;;;;16.17;13.05;;;;;;;;;;4204130;34;20101;-67
2022/01/27 05:23:51;;;;;;;16.77;12.25;;;;;;;;;;4217617;34;20612;-68
2022/01/27 05:26:18;;;;;;;18.75;13.85;;;;;;;;;;4218400;34;20117;-68
2022/01/27 05:28:44;;;;;;;16.60;13.02;;;;;;;;;;4218832;34;20108;-68
2022/01/27 05:31:10;;;;;;;17.25;13.52;;;;;;;;;;4218752;34;20527;-68
2022/01/27 05:33:36;;;;;;;16.40;12.63;;;;;;;;;;4218897;34;20196;-67
2022/01/27 05:36:03;;;;;;;15.00;12.32;;;;;;;;;;4218922;34;20100;-68
2022/01/27 05:38:29;;;;;;;16.90;13.43;;;;;;;;;;4206158;34;20101;-68
2022/01/27 05:40:55;;;;;;;17.23;13.52;;;;;;;;;;4218724;34;20124;-68
2022/01/27 05:43:21;;;;;;;16.70;12.80;;;;;;;;;;4218807;34;20117;-68
2022/01/27 05:45:47;;;;;;;17.10;13.18;;;;;;;;;;4205754;34;20101;-68
2022/01/27 05:48:13;;;;;;;19.10;14.07;;;;;;;;;;4218517;34;20541;-68
2022/01/27 05:50:39;;;;;;;15.95;13.23;;;;;;;;;;4205839;34;20125;-68
2022/01/27 05:53:05;;;;;;;17.83;13.88;;;;;;;;;;4217727;34;20204;-67
2022/01/27 05:55:31;;;;;;;16.80;13.75;;;;;;;;;;4218534;34;20136;-67
2022/01/27 05:57:57;;;;;;;17.92;13.20;;;;;;;;;;4218639;34;20125;-67
2022/01/27 06:00:24;;;;;;;19.23;13.93;;;;;;;;;;4218937;34;20121;-72
2022/01/27 06:02:51;;;;;;;15.25;12.20;;;;;;;;;;4205656;34;20125;-70
2022/01/27 06:05:17;;;;;;;15.45;13.50;;;;;;;;;;4218528;34;20513;-71
2022/01/27 06:07:43;;;;;;;16.20;13.32;;;;;;;;;;4205583;34;20112;-71
2022/01/27 06:10:09;;;;;;;18.12;13.52;;;;;;;;;;4217027;34;20553;-70
2022/01/27 06:12:44;;;;;;;18.73;12.85;;;;;;;;;;4205856;34;20102;-71
2022/01/27 06:15:11;;;;;;;16.30;12.40;;;;;;;;;;4205685;34;20150;-71
2022/01/27 06:17:37;;;;;;;17.12;12.90;;;;;;;;;;4218441;34;20117;-71
2022/01/27 06:20:03;;;;;;;16.52;11.98;;;;;;;;;;4218435;33;20128;-71
2022/01/27 06:22:29;;;;;;;17.98;12.93;;;;;;;;;;4216723;34;20204;-72
2022/01/27 06:24:55;;;;;;;16.73;11.85;;;;;;;;;;4205347;34;20113;-71
2022/01/27 06:27:21;;;;;;;14.23;11.88;;;;;;;;;;4216910;34;20125;-71
2022/01/27 06:29:48;;;;;;;16.27;12.43;;;;;;;;;;4218419;34;20093;-71
2022/01/27 06:32:14;;;;;;;15.23;11.88;;;;;;;;;;4217085;34;20209;-71
2022/01/27 06:34:40;;;;;;;14.93;11.98;;;;;;;;;;4218492;34;20097;-71
2022/01/27 06:37:06;;;;;;;16.48;11.70;;;;;;;;;;4218225;34;20218;-71
2022/01/27 06:39:32;;;;;;;15.15;11.70;;;;;;;;;;4218159;34;20628;-71
2022/01/27 06:41:58;;;;;;;16.42;13.70;;;;;;;;;;4218234;34;20109;-71
2022/01/27 06:44:24;;;;;;;15.55;13.15;;;;;;;;;;4218196;34;20101;-71
2022/01/27 06:46:50;;;;;;;15.90;12.90;;;;;;;;;;4218091;34;20238;-71
2022/01/27 06:49:17;;;;;;;16.98;13.00;;;;;;;;;;4218228;34;20112;-71
2022/01/27 06:51:44;;;;;;;15.75;12.88;;;;;;;;;;4218287;34;20201;-70
2022/01/27 06:54:11;;;;;;;16.30;13.38;;;;;;;;;;4216801;34;20110;-72
2022/01/27 06:56:37;;;;;;;16.73;13.35;;;;;;;;;;4204912;34;20556;-71
2022/01/27 06:59:03;;;;;;;17.92;13.23;;;;;;;;;;4205153;34;20203;-73
2022/01/27 07:01:30;;;;;;;17.20;13.40;;;;;;;;;;4204548;34;20143;-72
2022/01/27 07:03:56;;;;;;;16.15;12.65;;;;;;;;;;4204759;34;20506;-69
2022/01/27 07:06:22;;;;;;;18.27;13.70;;;;;;;;;;4217961;34;20537;-71
2022/01/27 07:08:48;;;;;;;17.55;13.93;;;;;;;;;;4218122;34;20109;-70
2022/01/27 07:11:14;;;;;;;18.17;13.65;;;;;;;;;;4216641;34;20197;-72
2022/01/27 07:13:40;;;;;;;19.75;14.48;;;;;;;;;;4217938;34;20119;-72
2022/01/27 07:16:07;;;;;;;19.17;14.48;;;;;;;;;;4217815;34;20216;-71
2022/01/27 07:18:34;;;;;;;17.42;15.05;;;;;;;;;;4217830;34;20090;-68
2022/01/27 07:21:00;;;;;;;20.42;15.10;;;;;;;;;;4216106;34;20211;-71
2022/01/27 07:23:26;;;;;;;17.35;14.73;;;;;;;;;;4204927;34;20685;-73
2022/01/27 07:25:52;;;;;;;20.42;14.73;;;;;;;;;;4217730;34;20093;-72
2022/01/27 07:28:18;;;;;;;17.05;13.48;;;;;;;;;;4217697;34;20133;-70
2022/01/27 07:30:45;;;;;;;17.65;13.32;;;;;;;;;;4217818;34;20556;-70
2022/01/27 07:33:11;;;;;;;17.08;13.82;;;;;;;;;;4217663;34;20281;-72
2022/01/27 07:35:37;;;;;;;18.45;14.65;;;;;;;;;;4217881;34;20106;-69
2022/01/27 07:38:05;;;;;;;18.40;14.05;;;;;;;;;;4217645;34;20510;-71
2022/01/27 07:40:31;;;;;;;17.60;13.82;;;;;;;;;;4217628;34;20093;-71
2022/01/27 07:42:57;;;;;;;16.75;12.37;;;;;;;;;;4217725;34;20098;-71
2022/01/27 07:45:23;;;;;;;18.17;14.30;;;;;;;;;;4217571;34;20529;-73
2022/01/27 07:47:49;;;;;;;19.45;14.15;;;;;;;;;;4217428;34;20124;-72
2022/01/27 07:50:16;;;;;;;16.95;14.80;;;;;;;;;;4217804;34;20108;-71
2022/01/27 07:52:42;;;;;;;16.35;12.90;;;;;;;;;;4217459;34;20111;-73
2022/01/27 07:55:09;;;;;;;18.20;12.45;;;;;;;;;;4204451;34;20098;-72
2022/01/27 07:57:36;;;;;;;20.75;14.40;;;;;;;;;;4204638;34;20260;-73
2022/01/27 08:00:03;;;;;;;17.60;14.57;;;;;;;;;;4217368;34;20125;-75
2022/01/27 08:02:30;;;;;;;17.75;14.27;;;;;;;;;;4204491;34;20109;-70
2022/01/27 08:04:56;;;;;;;16.48;14.18;;;;;;;;;;4204271;34;20124;-75
2022/01/27 08:07:22;;;;;;;18.10;15.77;;;;;;;;;;4217228;34;20112;-72
2022/01/27 08:09:48;;;;;;;18.85;15.80;;;;;;;;;;4193094;34;20136;-72
2022/01/27 08:12:14;;;;;;;19.12;16.40;;;;;;;;;;4217259;34;20113;-72
2022/01/27 08:14:41;;;;;;;18.12;15.55;;;;;;;;;;4217196;34;20109;-76
2022/01/27 08:17:07;;;;;;;21.58;15.85;;;;;;;;;;4218887;34;20105;-69
2022/01/27 08:19:33;;;;;;;17.67;15.60;;;;;;;;;;4219408;34;20098;-72
2022/01/27 08:21:59;;;;;;;18.15;15.35;;;;;;;;;;4205282;34;20145;-69
2022/01/27 08:24:26;;;;;;;19.35;16.48;;;;;;;;;;4216240;34;20925;-70
2022/01/27 08:26:58;;;;;;;19.12;16.62;;;;;;;;;;4217935;34;20105;-69
2022/01/27 08:29:32;;;;;;;20.37;15.73;;;;;;;;;;4205465;34;20516;-70
2022/01/27 08:34:31;;;;;;;22.90;16.08;;;;;;;;;;4216568;34;20634;-72
2022/01/27 08:37:02;;;;;;;21.77;16.77;;;;;;;;;;4204563;34;20600;-71
2022/01/27 08:39:28;;;;;;;21.52;16.77;;;;;;;;;;4193119;34;20521;-71
2022/01/27 08:41:55;;;;;;;22.48;17.40;;;;;;;;;;4205521;34;20102;-67
2022/01/27 08:44:21;;;;;;;21.20;16.87;;;;;;;;;;4219263;34;20118;-68
2022/01/27 08:46:47;;;;;;;19.95;16.75;;;;;;;;;;4206432;34;20450;-68
2022/01/27 08:49:13;;;;;;;19.17;15.88;;;;;;;;;;4219162;34;20174;-69
2022/01/27 08:51:39;;;;;;;23.30;16.60;;;;;;;;;;4206693;34;20116;-70
2022/01/27 08:54:05;;;;;;;19.05;15.45;;;;;;;;;;4206463;34;20113;-71
2022/01/27 08:56:32;;;;;;;19.00;15.63;;;;;;;;;;4217558;34;20329;-69
2022/01/27 08:58:58;;;;;;;18.67;14.95;;;;;;;;;;4206485;34;20426;-71
2022/01/27 09:01:26;;;;;;;19.15;15.30;;;;;;;;;;4217871;34;20451;-68
2022/01/27 09:03:53;;;;;;;18.60;14.77;;;;;;;;;;4206498;34;20136;-68
2022/01/27 09:06:20;;;;;;;20.12;16.20;;;;;;;;;;4219017;34;20141;-67
2022/01/27 09:08:47;;;;;;;17.73;14.77;;;;;;;;;;4219149;34;20109;-69
2022/01/27 09:11:13;;;;;;;18.37;15.23;;;;;;;;;;4205887;34;20101;-68
2022/01/27 09:13:39;;;;;;;17.17;14.40;;;;;;;;;;4219099;34;20168;-67
2022/01/27 09:16:06;;;;;;;18.42;14.27;;;;;;;;;;4219074;34;20196;-66
2022/01/27 09:18:33;;;;;;;18.42;15.50;;;;;;;;;;4219369;34;20119;-66
2022/01/27 09:21:02;;;;;;;21.70;16.42;;;;;;;;;;4218811;34;20529;-69
2022/01/27 09:23:29;;;;;;;23.95;17.70;;;;;;;;;;4206274;34;20632;-68
2022/01/27 09:26:02;;;;;;;23.42;18.30;;;;;;;;;;4217725;34;20101;-68
2022/01/27 09:28:28;;;;;;;23.73;18.02;;;;;;;;;;4217242;34;20094;-69
2022/01/27 09:30:56;;;;;;;21.17;17.23;;;;;;;;;;4218884;34;20181;-68
2022/01/27 09:33:23;;;;;;;21.70;17.62;;;;;;;;;;4218927;34;20089;-66
2022/01/27 09:35:49;;;;;;;24.52;18.02;;;;;;;;;;4218792;34;20121;-68
2022/01/27 09:38:16;;;;;;;17.75;15.48;;;;;;;;;;4217419;34;20098;-67
2022/01/27 09:40:47;;;;;;;17.50;14.10;;;;;;;;;;4216996;34;20465;-67
2022/01/27 09:43:14;;;;;;;17.58;14.68;;;;;;;;;;4216915;34;20101;-67
2022/01/27 09:45:40;;;;;;;15.82;13.52;;;;;;;;;;4204120;34;20554;-67
2022/01/27 09:48:15;;;;;;;17.92;14.18;;;;;;;;;;4216828;34;20188;-68
2022/01/27 09:53:13;;;;;;;15.60;14.00;;;;;;;;;;4206099;34;20188;-67
2022/01/27 09:55:39;;;;;;;16.85;14.65;;;;;;;;;;4205790;34;20183;-68
2022/01/27 09:58:07;;;;;;;16.67;13.50;;;;;;;;;;4218793;34;20453;-67
2022/01/27 10:00:33;;;;;;;15.57;13.18;;;;;;;;;;4205929;34;20120;-67
2022/01/27 10:03:09;;;;;;;15.27;13.65;;;;;;;;;;4205973;34;20140;-67
2022/01/27 10:05:35;;;;;;;15.15;13.13;;;;;;;;;;4217125;34;20102;-68
2022/01/27 10:08:10;;;;;;;17.10;14.13;;;;;;;;;;4218496;34;20118;-66
2022/01/27 10:10:39;;;;;;;16.40;14.10;;;;;;;;;;4206120;34;20216;-67
2022/01/27 10:13:07;;;;;;;13.77;12.25;;;;;;;;;;4205883;34;20422;-68
2022/01/27 10:15:39;;;;;;;17.08;14.35;;;;;;;;;;4206004;34;20115;-67
2022/01/27 10:18:26;;;;;;;20.83;15.98;;;;;;;;;;4205648;34;20086;-68
2022/01/27 10:21:00;;;;;;;17.90;14.30;;;;;;;;;;4205591;34;20106;-66
2022/01/27 10:23:31;;;;;;;15.98;14.07;;;;;;;;;;4205524;34;20114;-67
2022/01/27 10:26:08;;;;;;;17.52;13.93;;;;;;;;;;4205878;34;20465;-67
2022/01/27 10:28:46;;;;;;;17.17;14.35;;;;;;;;;;4206162;34;20506;-66
2022/01/27 10:31:24;;;;;;;16.35;14.48;;;;;;;;;;4218674;34;20108;-67
2022/01/27 10:33:53;;;;;;;17.80;15.02;;;;;;;;;;4218369;34;20109;-67
2022/01/27 10:36:31;;;;;;;16.52;14.27;;;;;;;;;;4218438;34;20207;-67
2022/01/27 10:39:08;;;;;;;17.10;13.38;;;;;;;;;;4204819;34;20202;-68
2022/01/27 10:41:38;;;;;;;16.83;14.10;;;;;;;;;;4218533;34;20168;-66
2022/01/27 10:44:10;;;;;;;17.75;14.63;;;;;;;;;;4216997;34;20121;-65
2022/01/27 10:46:44;;;;;;;17.15;14.15;;;;;;;;;;4218367;34;20121;-67
2022/01/27 10:49:20;;;;;;;16.85;14.35;;;;;;;;;;4218533;34;20192;-66
2022/01/27 10:51:47;;;;;;;;;;;;;;;;;;4218692;34;20209;-67
2022/01/27 10:54:21;;;;;;;18.83;14.93;;;;;;;;;;4217007;34;19964;-67
2022/01/27 10:56:48;;;;;;;21.30;14.80;;;;;;;;;;4218398;34;20108;-66
2022/01/27 10:59:17;;;;;;;18.08;14.73;;;;;;;;;;4216762;34;20116;-67
2022/01/27 11:01:48;;;;;;;17.80;14.57;;;;;;;;;;4193580;34;20123;-66
2022/01/27 11:04:15;;;;;;;17.62;14.60;;;;;;;;;;4205273;34;20208;-66
2022/01/27 11:06:55;;;;;;;20.37;14.95;;;;;;;;;;4218027;34;20120;-66
2022/01/27 11:09:21;;;;;;;17.73;14.15;;;;;;;;;;4216865;34;20140;-67
2022/01/27 11:11:52;;;;;;;19.75;15.43;;;;;;;;;;4217840;34;20113;-65
2022/01/27 11:14:19;;;;;;;19.00;14.85;;;;;;;;;;4205003;34;20128;-66
2022/01/27 11:16:49;;;;;;;17.85;14.02;;;;;;;;;;4217913;34;20204;-67
2022/01/27 11:21:45;;;;;;;17.08;13.85;;;;;;;;;;4217540;34;20531;-67
2022/01/27 11:24:17;;;;;;;17.62;13.50;;;;;;;;;;4217888;34;20082;-67
2022/01/27 11:26:44;;;;;;;20.15;14.82;;;;;;;;;;4193839;34;20559;-64
2022/01/27 11:29:11;;;;;;;18.42;13.85;;;;;;;;;;4204877;34;20097;-64
2022/01/27 11:32:01;;;;;;;20.48;15.30;;;;;;;;;;4204904;34;20109;-63
2022/01/27 11:34:46;;;;;;;15.30;12.70;;;;;;;;;;4192608;34;20526;-64
2022/01/27 11:37:13;;;;;;;18.50;13.33;;;;;;;;;;4217971;34;20113;-64
2022/01/27 11:39:51;;;;;;;16.90;14.68;;;;;;;;;;4203507;34;20216;-63
2022/01/27 11:42:42;;;;;;;16.42;13.65;;;;;;;;;;4216655;34;20183;-65
2022/01/27 11:45:20;;;;;;;19.23;13.95;;;;;;;;;;4217729;34;20461;-65
2022/01/27 11:48:02;;;;;;;17.58;13.25;;;;;;;;;;4218144;34;20125;-66
2022/01/27 11:50:37;;;;;;;19.30;14.82;;;;;;;;;;4218904;34;20113;-67
2022/01/27 11:53:08;;;;;;;17.10;14.07;;;;;;;;;;4220031;34;20160;-64
2022/01/27 11:55:34;;;;;;;16.92;14.20;;;;;;;;;;4222727;33;20131;-72
2022/01/27 11:58:17;;;;;;;16.62;14.07;;;;;;;;;;4229496;33;20787;-71
2022/01/27 12:01:06;;;;;;;17.85;13.85;;;;;;;;;;4220664;33;20137;-70
2022/01/27 12:03:33;;;;;;;15.07;13.00;;;;;;;;;;4224305;33;20524;-70
2022/01/27 12:06:17;;;;;;;16.35;13.98;;;;;;;;;;4233732;33;20136;-70
2022/01/27 12:08:44;;;;;;;16.33;14.02;;;;;;;;;;4233815;33;20124;-70
2022/01/27 12:11:44;;;;;;;18.20;14.23;;;;;;;;;;4220424;33;20209;-71
2022/01/27 12:14:13;;;;;;;16.58;13.50;;;;;;;;;;4219872;34;20104;-70
2022/01/27 12:16:52;;;;;;;16.40;14.15;;;;;;;;;;4219397;34;20537;-70
2022/01/27 12:19:19;;;;;;;19.10;14.82;;;;;;;;;;4219645;34;20124;-70
2022/01/27 12:21:51;;;;;;;19.85;15.82;;;;;;;;;;4219443;33;20561;-71
2022/01/27 12:24:31;;;;;;;16.80;14.35;;;;;;;;;;4219263;34;20173;-68
2022/01/27 12:27:03;;;;;;;16.25;14.07;;;;;;;;;;4219610;34;20137;-68
2022/01/27 12:29:36;;;;;;;17.08;15.25;;;;;;;;;;4219157;34;20529;-71
2022/01/27 12:32:10;;;;;;;17.52;14.43;;;;;;;;;;4219347;34;20134;-71
2022/01/27 12:34:37;;;;;;;18.33;15.40;;;;;;;;;;4219272;34;20113;-70
2022/01/27 12:37:10;;;;;;;17.12;15.05;;;;;;;;;;4219487;34;20097;-70
2022/01/27 12:39:41;;;;;;;18.00;14.48;;;;;;;;;;4219528;34;20111;-70
2022/01/27 12:42:12;;;;;;;17.02;14.82;;;;;;;;;;4219559;34;20201;-72
2022/01/27 12:44:42;;;;;;;16.73;14.50;;;;;;;;;;4219124;34;20265;-73
2022/01/27 12:47:16;;;;;;;21.42;17.20;;;;;;;;;;4219069;34;20110;-71
2022/01/27 12:49:47;;;;;;;24.20;19.08;;;;;;;;;;4219323;34;20228;-69
2022/01/27 12:52:18;;;;;;;22.13;17.65;;;;;;;;;;4219353;34;20137;-71
2022/01/27 12:54:48;;;;;;;20.35;16.20;;;;;;;;;;4219228;34;20121;-71
2022/01/27 12:57:22;;;;;;;19.35;16.45;;;;;;;;;;4219186;34;20525;-70
2022/01/27 12:59:51;;;;;;;19.10;16.00;;;;;;;;;;4219358;34;20481;-70
2022/01/27 13:02:19;;;;;;;18.90;16.90;;;;;;;;;;4218678;34;20102;-70
2022/01/27 13:04:46;;;;;;;17.55;15.20;;;;;;;;;;4232001;33;20125;-70
2022/01/27 13:07:12;;;;;;;18.55;15.60;;;;;;;;;;4220122;33;20127;-69
2022/01/27 13:09:39;;;;;;;20.65;16.42;;;;;;;;;;4212478;33;20090;-70
2022/01/27 13:12:18;;;;;;;18.20;15.95;;;;;;;;;;4217430;34;20205;-66
2022/01/27 13:15:01;;;;;;;18.00;16.10;;;;;;;;;;4218867;34;20137;-70
2022/01/27 13:17:35;;;;;;;18.80;16.87;;;;;;;;;;4206579;34;20109;-71
2022/01/27 13:20:20;;;;;;;20.52;16.45;;;;;;;;;;4206666;33;20178;-70
2022/01/27 13:22:51;;;;;;;21.67;19.20;;;;;;;;;;4194435;34;20121;-71
2022/01/27 13:25:19;;;;;;;19.42;16.52;;;;;;;;;;4218348;34;20101;-69
2022/01/27 13:28:04;;;;;;;20.40;17.40;;;;;;;;;;4205258;34;20093;-70
2022/01/27 13:30:32;;;;;;;20.27;16.80;;;;;;;;;;4205708;34;20128;-69
2022/01/27 13:32:58;;;;;;;17.90;16.00;;;;;;;;;;4205665;34;20164;-70
2022/01/27 13:35:25;;;;;;;17.10;15.40;;;;;;;;;;4205488;34;20101;-69
2022/01/27 13:37:57;;;;;;;17.48;15.02;;;;;;;;;;4218163;34;20093;-69
2022/01/27 13:43:14;;;;;;;17.80;14.48;;;;;;;;;;4218569;34;20113;-68
2022/01/27 13:45:40;;;;;;;19.75;14.75;;;;;;;;;;4205287;34;20468;-69
2022/01/27 13:48:20;;;;;;;17.00;15.15;;;;;;;;;;4204855;34;20117;-69
2022/01/27 13:50:54;;;;;;;18.08;15.65;;;;;;;;;;4204898;34;20118;-68
2022/01/27 13:53:21;;;;;;;18.58;15.68;;;;;;;;;;4214764;34;20156;-68
2022/01/27 13:56:04;;;;;;;16.37;14.48;;;;;;;;;;4218287;34;20193;-69
2022/01/27 13:58:30;;;;;;;16.48;14.38;;;;;;;;;;4217195;34;20097;-68
2022/01/27 14:01:13;;;;;;;16.65;14.85;;;;;;;;;;4218642;34;20112;-69
2022/01/27 14:03:40;;;;;;;18.62;16.00;;;;;;;;;;4205953;34;20109;-69
2022/01/27 14:06:07;;;;;;;18.12;15.63;;;;;;;;;;4218162;34;20642;-69
2022/01/27 14:08:37;;;;;;;20.05;16.45;;;;;;;;;;4217906;34;20517;-69
2022/01/27 14:11:04;;;;;;;17.90;15.63;;;;;;;;;;4218005;34;20122;-69
2022/01/27 14:13:30;;;;;;;17.10;15.20;;;;;;;;;;4217229;34;20200;-68
2022/01/27 14:15:56;;;;;;;18.67;15.45;;;;;;;;;;4205379;34;20128;-69
2022/01/27 14:18:41;;;;;;;18.62;16.02;;;;;;;;;;4205010;34;20492;-68
2022/01/27 14:21:07;;;;;;;19.50;16.45;;;;;;;;;;4203959;34;20098;-70
2022/01/27 14:23:56;;;;;;;18.92;16.05;;;;;;;;;;4211537;34;20164;-69
2022/01/27 14:28:56;;;;;;;19.42;16.17;;;;;;;;;;4214441;34;20645;-69
2022/01/27 14:31:23;;;;;;;18.27;16.02;;;;;;;;;;4218209;34;20430;-69
2022/01/27 14:33:49;;;;;;;17.45;15.48;;;;;;;;;;4203959;34;20118;-68
2022/01/27 14:36:15;;;;;;;18.48;15.52;;;;;;;;;;4215656;34;20112;-69
2022/01/27 14:38:42;;;;;;;21.08;16.35;;;;;;;;;;4205367;34;20116;-69
2022/01/27 14:41:08;;;;;;;19.83;15.98;;;;;;;;;;4216513;34;20509;-70
2022/01/27 14:43:38;;;;;;;18.55;15.88;;;;;;;;;;4218111;34;20105;-69
2022/01/27 14:46:04;;;;;;;18.45;16.10;;;;;;;;;;4217879;34;20213;-70
2022/01/27 14:48:34;;;;;;;19.30;16.17;;;;;;;;;;4217317;34;20125;-70
2022/01/27 14:51:00;;;;;;;17.70;15.80;;;;;;;;;;4193177;34;20129;-70
2022/01/27 14:53:27;;;;;;;17.52;15.63;;;;;;;;;;4199056;34;20213;-68
2022/01/27 14:55:53;;;;;;;17.10;15.02;;;;;;;;;;4192152;34;20141;-68
2022/01/27 14:58:19;;;;;;;17.58;15.73;;;;;;;;;;4213587;34;20216;-68
2022/01/27 15:00:45;;;;;;;17.98;16.08;;;;;;;;;;4217737;34;20126;-67
2022/01/27 15:03:11;;;;;;;20.92;16.70;;;;;;;;;;4213563;34;20118;-66
2022/01/27 15:05:37;;;;;;;18.90;16.15;;;;;;;;;;4214017;34;20570;-67
2022/01/27 15:08:04;;;;;;;18.70;16.70;;;;;;;;;;4204704;34;20132;-68
2022/01/27 15:10:30;;;;;;;19.23;16.95;;;;;;;;;;4218250;34;20109;-66
2022/01/27 15:12:56;;;;;;;18.62;16.35;;;;;;;;;;4216301;34;20120;-67
2022/01/27 15:20:56;;;;;;;19.05;17.00;;;;;;;;;;4206548;34;20540;-67
2022/01/27 15:23:24;;;;;;;24.45;19.50;;;;;;;;;;4205564;34;20110;-66
2022/01/27 15:25:50;;;;;;;18.75;16.27;;;;;;;;;;4220879;33;20831;-66
2022/01/27 15:28:17;;;;;;;17.48;15.65;;;;;;;;;;4222542;34;20297;-66
2022/01/27 15:30:43;;;;;;;19.25;16.83;;;;;;;;;;4209582;34;20220;-66
2022/01/27 15:33:11;;;;;;;18.12;16.17;;;;;;;;;;4222755;34;20101;-66
2022/01/27 15:35:38;;;;;;;18.30;16.30;;;;;;;;;;4222920;34;20136;-66
2022/01/27 15:38:04;;;;;;;18.08;16.10;;;;;;;;;;4222467;34;20187;-67
2022/01/27 15:40:32;;;;;;;19.10;16.87;;;;;;;;;;4221317;34;20132;-65
2022/01/27 15:42:59;;;;;;;19.40;17.40;;;;;;;;;;4217739;34;20109;-71
2022/01/27 15:45:29;;;;;;;19.52;17.40;;;;;;;;;;4218849;34;20533;-70